sensor_id;sensor_type;location;lat;lon;timestamp;P1;durP1;ratioP1;P2;durP2;ratioP2
22557;SDS011;11445;53.816;8.902;2023-04-05T00:02:18;7.03;;;3.90;;
22557;SDS011;11445;53.816;8.902;2023-04-05T00:04:46;9.27;;;4.47;;
22557;SDS011;11445;53.816;8.902;2023-04-05T00:07:18;6.10;;;3.65;;
22557;SDS011;11445;53.816;8.902;2023-04-05T00:09:46;5.20;;;3.72;;
22557;SDS011;11445;53.816;8.902;2023-04-05T00:12:14;8.02;;;3.85;;
22557;SDS011;11445;53.816;8.902;2023-04-05T00:14:41;4.35;;;3.70;;
22557;SDS011;11445;53.816;8.902;2023-04-05T00:17:09;7.28;;;3.72;;
22557;SDS011;11445;53.816;8.902;2023-04-05T00:19:37;7.50;;;4.03;;
22557;SDS011;11445;53.816;8.902;2023-04-05T00:22:04;5.88;;;3.90;;
22557;SDS011;11445;53.816;8.902;2023-04-05T00:24:35;6.45;;;3.83;;
22557;SDS011;11445;53.816;8.902;2023-04-05T00:27:06;7.18;;;3.92;;
22557;SDS011;11445;53.816;8.902;2023-04-05T00:29:33;5.22;;;3.95;;
22557;SDS011;11445;53.816;8.902;2023-04-05T00:32:00;5.90;;;3.90;;
22557;SDS011;11445;53.816;8.902;2023-04-05T00:34:30;9.30;;;4.00;;
22557;SDS011;11445;53.816;8.902;2023-04-05T00:36:57;9.40;;;4.55;;
22557;SDS011;11445;53.816;8.902;2023-04-05T00:39:25;6.05;;;4.07;;
22557;SDS011;11445;53.816;8.902;2023-04-05T00:41:52;12.00;;;4.50;;
22557;SDS011;11445;53.816;8.902;2023-04-05T00:44:20;9.95;;;4.40;;
22557;SDS011;11445;53.816;8.902;2023-04-05T00:46:47;6.65;;;4.25;;
22557;SDS011;11445;53.816;8.902;2023-04-05T00:49:14;9.15;;;4.55;;
22557;SDS011;11445;53.816;8.902;2023-04-05T00:51:42;6.25;;;4.22;;
22557;SDS011;11445;53.816;8.902;2023-04-05T00:54:10;7.10;;;5.00;;
22557;SDS011;11445;53.816;8.902;2023-04-05T00:56:39;8.43;;;4.15;;
22557;SDS011;11445;53.816;8.902;2023-04-05T00:59:07;8.13;;;4.82;;
22557;SDS011;11445;53.816;8.902;2023-04-05T01:01:34;8.30;;;4.75;;
22557;SDS011;11445;53.816;8.902;2023-04-05T01:04:05;6.88;;;5.15;;
22557;SDS011;11445;53.816;8.902;2023-04-05T01:06:37;7.45;;;4.75;;
22557;SDS011;11445;53.816;8.902;2023-04-05T01:09:13;9.90;;;4.60;;
22557;SDS011;11445;53.816;8.902;2023-04-05T01:11:50;8.30;;;4.80;;
22557;SDS011;11445;53.816;8.902;2023-04-05T01:14:21;8.63;;;5.13;;
22557;SDS011;11445;53.816;8.902;2023-04-05T01:16:48;8.25;;;4.93;;
22557;SDS011;11445;53.816;8.902;2023-04-05T01:19:22;9.02;;;5.13;;
22557;SDS011;11445;53.816;8.902;2023-04-05T01:25:16;7.18;;;4.88;;
22557;SDS011;11445;53.816;8.902;2023-04-05T01:28:03;13.02;;;5.15;;
22557;SDS011;11445;53.816;8.902;2023-04-05T01:30:55;8.60;;;4.95;;
22557;SDS011;11445;53.816;8.902;2023-04-05T01:33:36;6.65;;;4.60;;
22557;SDS011;11445;53.816;8.902;2023-04-05T01:36:15;8.07;;;5.15;;
22557;SDS011;11445;53.816;8.902;2023-04-05T01:38:47;6.47;;;4.60;;
22557;SDS011;11445;53.816;8.902;2023-04-05T01:41:15;10.95;;;5.15;;
22557;SDS011;11445;53.816;8.902;2023-04-05T01:43:42;9.80;;;4.72;;
22557;SDS011;11445;53.816;8.902;2023-04-05T01:46:10;8.15;;;5.50;;
22557;SDS011;11445;53.816;8.902;2023-04-05T01:48:37;9.38;;;5.32;;
22557;SDS011;11445;53.816;8.902;2023-04-05T01:51:05;7.57;;;4.97;;
22557;SDS011;11445;53.816;8.902;2023-04-05T01:53:32;12.32;;;5.32;;
22557;SDS011;11445;53.816;8.902;2023-04-05T01:55:59;12.40;;;6.07;;
22557;SDS011;11445;53.816;8.902;2023-04-05T01:58:27;9.75;;;5.57;;
22557;SDS011;11445;53.816;8.902;2023-04-05T02:00:54;11.88;;;5.60;;
22557;SDS011;11445;53.816;8.902;2023-04-05T02:03:23;12.55;;;6.10;;
22557;SDS011;11445;53.816;8.902;2023-04-05T02:05:50;10.65;;;6.07;;
22557;SDS011;11445;53.816;8.902;2023-04-05T02:08:17;10.38;;;5.80;;
22557;SDS011;11445;53.816;8.902;2023-04-05T02:10:44;12.65;;;6.38;;
22557;SDS011;11445;53.816;8.902;2023-04-05T02:13:11;12.95;;;6.38;;
22557;SDS011;11445;53.816;8.902;2023-04-05T02:15:38;10.75;;;5.80;;
22557;SDS011;11445;53.816;8.902;2023-04-05T02:18:06;9.32;;;5.57;;
22557;SDS011;11445;53.816;8.902;2023-04-05T02:20:34;8.82;;;5.97;;
22557;SDS011;11445;53.816;8.902;2023-04-05T02:23:02;9.02;;;5.65;;
22557;SDS011;11445;53.816;8.902;2023-04-05T02:25:29;14.63;;;5.88;;
22557;SDS011;11445;53.816;8.902;2023-04-05T02:27:56;10.73;;;5.57;;
22557;SDS011;11445;53.816;8.902;2023-04-05T02:30:23;9.70;;;6.15;;
22557;SDS011;11445;53.816;8.902;2023-04-05T02:32:53;9.32;;;5.90;;
22557;SDS011;11445;53.816;8.902;2023-04-05T02:35:21;7.53;;;5.57;;
22557;SDS011;11445;53.816;8.902;2023-04-05T02:37:49;10.77;;;6.13;;
22557;SDS011;11445;53.816;8.902;2023-04-05T02:40:16;11.38;;;5.78;;
22557;SDS011;11445;53.816;8.902;2023-04-05T02:42:45;12.88;;;5.43;;
22557;SDS011;11445;53.816;8.902;2023-04-05T02:45:12;7.80;;;5.75;;
22557;SDS011;11445;53.816;8.902;2023-04-05T02:47:39;11.23;;;5.85;;
22557;SDS011;11445;53.816;8.902;2023-04-05T02:50:06;9.00;;;5.90;;
22557;SDS011;11445;53.816;8.902;2023-04-05T02:52:33;9.27;;;5.90;;
22557;SDS011;11445;53.816;8.902;2023-04-05T02:55:03;9.77;;;5.85;;
22557;SDS011;11445;53.816;8.902;2023-04-05T02:57:30;11.90;;;5.90;;
22557;SDS011;11445;53.816;8.902;2023-04-05T02:59:58;8.20;;;5.95;;
22557;SDS011;11445;53.816;8.902;2023-04-05T03:02:25;11.90;;;6.30;;
22557;SDS011;11445;53.816;8.902;2023-04-05T03:04:53;11.27;;;6.15;;
22557;SDS011;11445;53.816;8.902;2023-04-05T03:07:20;10.13;;;6.13;;
22557;SDS011;11445;53.816;8.902;2023-04-05T03:09:49;8.85;;;5.80;;
22557;SDS011;11445;53.816;8.902;2023-04-05T03:12:19;10.20;;;6.18;;
22557;SDS011;11445;53.816;8.902;2023-04-05T03:14:46;11.93;;;5.80;;
22557;SDS011;11445;53.816;8.902;2023-04-05T03:17:13;10.65;;;5.88;;
22557;SDS011;11445;53.816;8.902;2023-04-05T03:19:40;11.13;;;6.22;;
22557;SDS011;11445;53.816;8.902;2023-04-05T03:22:09;13.88;;;6.65;;
22557;SDS011;11445;53.816;8.902;2023-04-05T03:24:36;10.65;;;6.32;;
22557;SDS011;11445;53.816;8.902;2023-04-05T03:27:03;12.23;;;6.55;;
22557;SDS011;11445;53.816;8.902;2023-04-05T03:29:32;9.07;;;5.88;;
22557;SDS011;11445;53.816;8.902;2023-04-05T03:31:59;12.98;;;6.03;;
22557;SDS011;11445;53.816;8.902;2023-04-05T03:34:26;12.45;;;6.20;;
22557;SDS011;11445;53.816;8.902;2023-04-05T03:36:54;10.93;;;5.80;;
22557;SDS011;11445;53.816;8.902;2023-04-05T03:39:21;10.07;;;6.10;;
22557;SDS011;11445;53.816;8.902;2023-04-05T03:41:48;10.48;;;6.00;;
22557;SDS011;11445;53.816;8.902;2023-04-05T03:44:15;14.65;;;6.70;;
22557;SDS011;11445;53.816;8.902;2023-04-05T03:46:44;11.27;;;6.40;;
22557;SDS011;11445;53.816;8.902;2023-04-05T03:49:11;12.02;;;6.35;;
22557;SDS011;11445;53.816;8.902;2023-04-05T03:51:38;10.10;;;6.30;;
22557;SDS011;11445;53.816;8.902;2023-04-05T03:54:05;10.90;;;6.50;;
22557;SDS011;11445;53.816;8.902;2023-04-05T03:56:32;13.60;;;7.07;;
22557;SDS011;11445;53.816;8.902;2023-04-05T03:58:59;10.13;;;6.65;;
22557;SDS011;11445;53.816;8.902;2023-04-05T04:01:26;11.45;;;6.13;;
22557;SDS011;11445;53.816;8.902;2023-04-05T04:03:55;10.45;;;6.35;;
22557;SDS011;11445;53.816;8.902;2023-04-05T04:06:24;10.93;;;6.38;;
22557;SDS011;11445;53.816;8.902;2023-04-05T04:08:51;15.55;;;6.63;;
22557;SDS011;11445;53.816;8.902;2023-04-05T04:11:18;21.90;;;6.60;;
22557;SDS011;11445;53.816;8.902;2023-04-05T04:13:45;17.60;;;6.68;;
22557;SDS011;11445;53.816;8.902;2023-04-05T04:16:12;11.70;;;6.28;;
22557;SDS011;11445;53.816;8.902;2023-04-05T04:18:42;11.25;;;6.43;;
22557;SDS011;11445;53.816;8.902;2023-04-05T04:21:10;9.93;;;6.75;;
22557;SDS011;11445;53.816;8.902;2023-04-05T04:23:37;12.15;;;7.20;;
22557;SDS011;11445;53.816;8.902;2023-04-05T04:26:04;13.70;;;7.18;;
22557;SDS011;11445;53.816;8.902;2023-04-05T04:28:31;13.13;;;7.97;;
22557;SDS011;11445;53.816;8.902;2023-04-05T04:31:02;13.40;;;7.15;;
22557;SDS011;11445;53.816;8.902;2023-04-05T04:33:33;15.05;;;8.18;;
22557;SDS011;11445;53.816;8.902;2023-04-05T04:36:04;11.55;;;7.47;;
22557;SDS011;11445;53.816;8.902;2023-04-05T04:38:34;14.70;;;8.23;;
22557;SDS011;11445;53.816;8.902;2023-04-05T04:41:05;19.08;;;8.45;;
22557;SDS011;11445;53.816;8.902;2023-04-05T04:43:32;17.75;;;8.35;;
22557;SDS011;11445;53.816;8.902;2023-04-05T04:46:07;13.52;;;8.18;;
22557;SDS011;11445;53.816;8.902;2023-04-05T04:48:38;15.00;;;8.68;;
22557;SDS011;11445;53.816;8.902;2023-04-05T04:51:07;14.10;;;8.93;;
22557;SDS011;11445;53.816;8.902;2023-04-05T04:53:36;15.85;;;9.48;;
22557;SDS011;11445;53.816;8.902;2023-04-05T04:56:05;14.75;;;9.23;;
22557;SDS011;11445;53.816;8.902;2023-04-05T04:58:32;18.38;;;9.88;;
22557;SDS011;11445;53.816;8.902;2023-04-05T05:00:59;16.35;;;9.90;;
22557;SDS011;11445;53.816;8.902;2023-04-05T05:03:33;16.58;;;9.60;;
22557;SDS011;11445;53.816;8.902;2023-04-05T05:06:01;20.27;;;10.25;;
22557;SDS011;11445;53.816;8.902;2023-04-05T05:08:28;18.45;;;9.98;;
22557;SDS011;11445;53.816;8.902;2023-04-05T05:10:57;16.90;;;10.55;;
22557;SDS011;11445;53.816;8.902;2023-04-05T05:13:24;21.25;;;10.27;;
22557;SDS011;11445;53.816;8.902;2023-04-05T05:15:51;17.05;;;10.05;;
22557;SDS011;11445;53.816;8.902;2023-04-05T05:18:18;18.40;;;10.68;;
22557;SDS011;11445;53.816;8.902;2023-04-05T05:20:48;17.75;;;10.93;;
22557;SDS011;11445;53.816;8.902;2023-04-05T05:23:16;21.00;;;9.70;;
22557;SDS011;11445;53.816;8.902;2023-04-05T05:25:45;19.85;;;10.85;;
22557;SDS011;11445;53.816;8.902;2023-04-05T05:28:13;17.58;;;10.18;;
22557;SDS011;11445;53.816;8.902;2023-04-05T05:30:40;26.40;;;10.93;;
22557;SDS011;11445;53.816;8.902;2023-04-05T05:33:07;20.02;;;10.00;;
22557;SDS011;11445;53.816;8.902;2023-04-05T05:35:34;16.92;;;9.73;;
22557;SDS011;11445;53.816;8.902;2023-04-05T05:38:02;16.92;;;9.82;;
22557;SDS011;11445;53.816;8.902;2023-04-05T05:40:29;15.00;;;9.80;;
22557;SDS011;11445;53.816;8.902;2023-04-05T05:42:56;18.05;;;9.32;;
22557;SDS011;11445;53.816;8.902;2023-04-05T05:45:24;20.08;;;10.55;;
22557;SDS011;11445;53.816;8.902;2023-04-05T05:47:51;15.00;;;9.77;;
22557;SDS011;11445;53.816;8.902;2023-04-05T05:50:18;16.75;;;9.50;;
22557;SDS011;11445;53.816;8.902;2023-04-05T05:52:45;17.85;;;9.98;;
22557;SDS011;11445;53.816;8.902;2023-04-05T05:55:12;17.10;;;10.43;;
22557;SDS011;11445;53.816;8.902;2023-04-05T05:57:40;16.88;;;10.55;;
22557;SDS011;11445;53.816;8.902;2023-04-05T06:00:07;21.95;;;10.82;;
22557;SDS011;11445;53.816;8.902;2023-04-05T06:02:36;16.15;;;10.63;;
22557;SDS011;11445;53.816;8.902;2023-04-05T06:05:03;21.65;;;11.13;;
22557;SDS011;11445;53.816;8.902;2023-04-05T06:07:34;21.10;;;10.95;;
22557;SDS011;11445;53.816;8.902;2023-04-05T06:10:01;20.42;;;12.00;;
22557;SDS011;11445;53.816;8.902;2023-04-05T06:12:29;20.65;;;13.10;;
22557;SDS011;11445;53.816;8.902;2023-04-05T06:14:56;21.75;;;12.80;;
22557;SDS011;11445;53.816;8.902;2023-04-05T06:17:23;24.85;;;13.48;;
22557;SDS011;11445;53.816;8.902;2023-04-05T06:19:52;24.40;;;14.05;;
22557;SDS011;11445;53.816;8.902;2023-04-05T06:22:19;31.92;;;13.07;;
22557;SDS011;11445;53.816;8.902;2023-04-05T06:24:47;20.45;;;12.48;;
22557;SDS011;11445;53.816;8.902;2023-04-05T06:27:14;26.17;;;13.90;;
22557;SDS011;11445;53.816;8.902;2023-04-05T06:29:41;24.65;;;14.50;;
22557;SDS011;11445;53.816;8.902;2023-04-05T06:32:08;28.60;;;13.90;;
22557;SDS011;11445;53.816;8.902;2023-04-05T06:34:35;32.65;;;15.68;;
22557;SDS011;11445;53.816;8.902;2023-04-05T06:37:03;31.50;;;16.58;;
22557;SDS011;11445;53.816;8.902;2023-04-05T06:39:31;29.90;;;16.77;;
22557;SDS011;11445;53.816;8.902;2023-04-05T06:41:58;32.53;;;16.67;;
22557;SDS011;11445;53.816;8.902;2023-04-05T06:44:25;33.28;;;18.33;;
22557;SDS011;11445;53.816;8.902;2023-04-05T06:46:52;29.55;;;18.80;;
22557;SDS011;11445;53.816;8.902;2023-04-05T06:49:19;35.55;;;20.52;;
22557;SDS011;11445;53.816;8.902;2023-04-05T06:51:46;37.13;;;21.27;;
22557;SDS011;11445;53.816;8.902;2023-04-05T06:54:15;32.78;;;20.65;;
22557;SDS011;11445;53.816;8.902;2023-04-05T06:56:42;34.05;;;20.85;;
22557;SDS011;11445;53.816;8.902;2023-04-05T06:59:09;31.88;;;19.40;;
22557;SDS011;11445;53.816;8.902;2023-04-05T07:01:36;32.83;;;19.27;;
22557;SDS011;11445;53.816;8.902;2023-04-05T07:04:03;28.23;;;16.77;;
22557;SDS011;11445;53.816;8.902;2023-04-05T07:06:30;27.45;;;17.75;;
22557;SDS011;11445;53.816;8.902;2023-04-05T07:08:59;33.40;;;18.45;;
22557;SDS011;11445;53.816;8.902;2023-04-05T07:11:29;32.78;;;16.73;;
22557;SDS011;11445;53.816;8.902;2023-04-05T07:13:57;30.70;;;17.33;;
22557;SDS011;11445;53.816;8.902;2023-04-05T07:16:24;30.83;;;16.20;;
22557;SDS011;11445;53.816;8.902;2023-04-05T07:18:51;31.33;;;17.02;;
22557;SDS011;11445;53.816;8.902;2023-04-05T07:21:18;32.63;;;17.55;;
22557;SDS011;11445;53.816;8.902;2023-04-05T07:23:45;32.35;;;16.90;;
22557;SDS011;11445;53.816;8.902;2023-04-05T07:26:12;27.98;;;15.25;;
22557;SDS011;11445;53.816;8.902;2023-04-05T07:28:41;28.23;;;14.32;;
22557;SDS011;11445;53.816;8.902;2023-04-05T07:31:08;25.42;;;13.77;;
22557;SDS011;11445;53.816;8.902;2023-04-05T07:33:35;23.40;;;13.73;;
22557;SDS011;11445;53.816;8.902;2023-04-05T07:36:02;22.60;;;12.18;;
22557;SDS011;11445;53.816;8.902;2023-04-05T07:38:29;23.08;;;11.77;;
22557;SDS011;11445;53.816;8.902;2023-04-05T07:40:56;23.77;;;12.43;;
22557;SDS011;11445;53.816;8.902;2023-04-05T07:43:23;17.95;;;11.23;;
22557;SDS011;11445;53.816;8.902;2023-04-05T07:45:59;16.08;;;9.95;;
22557;SDS011;11445;53.816;8.902;2023-04-05T07:48:26;14.95;;;9.60;;
22557;SDS011;11445;53.816;8.902;2023-04-05T07:50:53;19.77;;;9.85;;
22557;SDS011;11445;53.816;8.902;2023-04-05T07:53:20;14.20;;;7.90;;
22557;SDS011;11445;53.816;8.902;2023-04-05T07:55:48;17.13;;;8.38;;
22557;SDS011;11445;53.816;8.902;2023-04-05T07:58:17;13.32;;;7.60;;
22557;SDS011;11445;53.816;8.902;2023-04-05T08:00:44;13.35;;;6.57;;
22557;SDS011;11445;53.816;8.902;2023-04-05T08:03:13;14.70;;;6.80;;
22557;SDS011;11445;53.816;8.902;2023-04-05T08:05:40;14.95;;;6.53;;
22557;SDS011;11445;53.816;8.902;2023-04-05T08:08:07;11.70;;;5.93;;
22557;SDS011;11445;53.816;8.902;2023-04-05T08:10:37;10.63;;;6.05;;
22557;SDS011;11445;53.816;8.902;2023-04-05T08:13:04;9.63;;;5.93;;
22557;SDS011;11445;53.816;8.902;2023-04-05T08:15:32;11.07;;;5.68;;
22557;SDS011;11445;53.816;8.902;2023-04-05T08:17:59;10.38;;;5.07;;
22557;SDS011;11445;53.816;8.902;2023-04-05T08:20:28;9.45;;;5.25;;
22557;SDS011;11445;53.816;8.902;2023-04-05T08:22:55;7.97;;;5.10;;
22557;SDS011;11445;53.816;8.902;2023-04-05T08:25:22;12.55;;;5.22;;
22557;SDS011;11445;53.816;8.902;2023-04-05T08:27:49;10.02;;;4.97;;
22557;SDS011;11445;53.816;8.902;2023-04-05T08:30:16;11.25;;;4.72;;
22557;SDS011;11445;53.816;8.902;2023-04-05T08:32:44;8.52;;;4.85;;
22557;SDS011;11445;53.816;8.902;2023-04-05T08:35:11;9.65;;;4.47;;
22557;SDS011;11445;53.816;8.902;2023-04-05T08:37:39;7.30;;;4.40;;
22557;SDS011;11445;53.816;8.902;2023-04-05T08:40:07;9.05;;;4.45;;
22557;SDS011;11445;53.816;8.902;2023-04-05T08:42:35;9.82;;;4.40;;
22557;SDS011;11445;53.816;8.902;2023-04-05T08:45:07;7.38;;;4.03;;
22557;SDS011;11445;53.816;8.902;2023-04-05T08:47:36;6.50;;;3.47;;
22557;SDS011;11445;53.816;8.902;2023-04-05T08:50:04;4.25;;;3.17;;
22557;SDS011;11445;53.816;8.902;2023-04-05T08:52:32;8.50;;;3.22;;
22557;SDS011;11445;53.816;8.902;2023-04-05T08:55:03;10.70;;;3.50;;
22557;SDS011;11445;53.816;8.902;2023-04-05T08:57:31;7.80;;;3.30;;
22557;SDS011;11445;53.816;8.902;2023-04-05T08:59:59;7.40;;;3.70;;
22557;SDS011;11445;53.816;8.902;2023-04-05T09:02:28;7.57;;;3.95;;
22557;SDS011;11445;53.816;8.902;2023-04-05T09:04:56;9.40;;;4.03;;
22557;SDS011;11445;53.816;8.902;2023-04-05T09:07:25;5.97;;;3.22;;
22557;SDS011;11445;53.816;8.902;2023-04-05T09:09:55;9.48;;;4.28;;
22557;SDS011;11445;53.816;8.902;2023-04-05T09:12:26;6.57;;;3.47;;
22557;SDS011;11445;53.816;8.902;2023-04-05T09:14:54;7.20;;;3.00;;
22557;SDS011;11445;53.816;8.902;2023-04-05T09:17:22;8.75;;;3.50;;
22557;SDS011;11445;53.816;8.902;2023-04-05T09:19:49;6.43;;;3.35;;
22557;SDS011;11445;53.816;8.902;2023-04-05T09:22:17;11.15;;;3.33;;
22557;SDS011;11445;53.816;8.902;2023-04-05T09:24:44;6.13;;;3.20;;
22557;SDS011;11445;53.816;8.902;2023-04-05T09:27:12;3.92;;;2.35;;
22557;SDS011;11445;53.816;8.902;2023-04-05T09:29:42;5.15;;;2.83;;
22557;SDS011;11445;53.816;8.902;2023-04-05T09:32:11;4.10;;;2.47;;
22557;SDS011;11445;53.816;8.902;2023-04-05T09:34:39;5.50;;;2.38;;
22557;SDS011;11445;53.816;8.902;2023-04-05T09:37:11;8.05;;;2.90;;
22557;SDS011;11445;53.816;8.902;2023-04-05T09:39:39;4.60;;;2.80;;
22557;SDS011;11445;53.816;8.902;2023-04-05T09:42:07;3.28;;;2.00;;
22557;SDS011;11445;53.816;8.902;2023-04-05T09:44:50;6.28;;;2.53;;
22557;SDS011;11445;53.816;8.902;2023-04-05T09:47:18;4.15;;;2.38;;
22557;SDS011;11445;53.816;8.902;2023-04-05T09:49:46;6.93;;;2.55;;
22557;SDS011;11445;53.816;8.902;2023-04-05T09:52:17;10.32;;;3.15;;
22557;SDS011;11445;53.816;8.902;2023-04-05T09:54:45;7.00;;;2.78;;
22557;SDS011;11445;53.816;8.902;2023-04-05T09:57:12;7.05;;;2.30;;
22557;SDS011;11445;53.816;8.902;2023-04-05T09:59:41;4.07;;;2.40;;
22557;SDS011;11445;53.816;8.902;2023-04-05T10:02:10;9.18;;;3.60;;
22557;SDS011;11445;53.816;8.902;2023-04-05T10:04:38;4.43;;;3.30;;
22557;SDS011;11445;53.816;8.902;2023-04-05T10:07:06;7.32;;;3.83;;
22557;SDS011;11445;53.816;8.902;2023-04-05T10:09:34;10.40;;;3.80;;
22557;SDS011;11445;53.816;8.902;2023-04-05T10:12:01;21.52;;;3.30;;
22557;SDS011;11445;53.816;8.902;2023-04-05T10:14:29;8.63;;;3.10;;
22557;SDS011;11445;53.816;8.902;2023-04-05T10:16:58;8.13;;;3.50;;
22557;SDS011;11445;53.816;8.902;2023-04-05T10:19:33;4.35;;;2.35;;
22557;SDS011;11445;53.816;8.902;2023-04-05T10:22:22;5.70;;;2.75;;
22557;SDS011;11445;53.816;8.902;2023-04-05T10:24:57;4.93;;;2.33;;
22557;SDS011;11445;53.816;8.902;2023-04-05T10:27:32;6.00;;;2.55;;
22557;SDS011;11445;53.816;8.902;2023-04-05T10:30:04;12.98;;;3.55;;
22557;SDS011;11445;53.816;8.902;2023-04-05T10:32:36;7.13;;;3.78;;
22557;SDS011;11445;53.816;8.902;2023-04-05T10:35:16;9.25;;;3.63;;
22557;SDS011;11445;53.816;8.902;2023-04-05T10:37:50;7.82;;;3.85;;
22557;SDS011;11445;53.816;8.902;2023-04-05T10:40:25;6.60;;;3.15;;
22557;SDS011;11445;53.816;8.902;2023-04-05T10:42:56;8.45;;;3.90;;
22557;SDS011;11445;53.816;8.902;2023-04-05T10:45:24;6.18;;;3.40;;
22557;SDS011;11445;53.816;8.902;2023-04-05T10:47:53;5.13;;;3.58;;
22557;SDS011;11445;53.816;8.902;2023-04-05T10:50:30;5.85;;;3.03;;
22557;SDS011;11445;53.816;8.902;2023-04-05T10:52:58;7.50;;;3.30;;
22557;SDS011;11445;53.816;8.902;2023-04-05T10:55:25;17.63;;;3.63;;
22557;SDS011;11445;53.816;8.902;2023-04-05T10:57:53;13.13;;;3.28;;
22557;SDS011;11445;53.816;8.902;2023-04-05T11:00:21;7.65;;;3.22;;
22557;SDS011;11445;53.816;8.902;2023-04-05T11:02:52;7.78;;;3.50;;
22557;SDS011;11445;53.816;8.902;2023-04-05T11:05:31;5.78;;;3.50;;
22557;SDS011;11445;53.816;8.902;2023-04-05T11:07:59;6.57;;;3.25;;
22557;SDS011;11445;53.816;8.902;2023-04-05T11:10:29;6.45;;;3.28;;
22557;SDS011;11445;53.816;8.902;2023-04-05T11:13:07;9.55;;;3.40;;
22557;SDS011;11445;53.816;8.902;2023-04-05T11:15:35;5.63;;;3.30;;
22557;SDS011;11445;53.816;8.902;2023-04-05T11:18:03;5.82;;;3.47;;
22557;SDS011;11445;53.816;8.902;2023-04-05T11:20:45;6.80;;;4.38;;
22557;SDS011;11445;53.816;8.902;2023-04-05T11:23:16;4.55;;;3.15;;
22557;SDS011;11445;53.816;8.902;2023-04-05T11:25:49;6.43;;;3.85;;
22557;SDS011;11445;53.816;8.902;2023-04-05T11:28:24;7.50;;;3.42;;
22557;SDS011;11445;53.816;8.902;2023-04-05T11:30:54;6.38;;;3.60;;
22557;SDS011;11445;53.816;8.902;2023-04-05T11:33:35;5.63;;;3.58;;
22557;SDS011;11445;53.816;8.902;2023-04-05T11:36:04;7.45;;;4.18;;
22557;SDS011;11445;53.816;8.902;2023-04-05T11:38:31;6.35;;;3.67;;
22557;SDS011;11445;53.816;8.902;2023-04-05T11:41:05;7.55;;;3.30;;
22557;SDS011;11445;53.816;8.902;2023-04-05T11:43:37;6.22;;;3.17;;
22557;SDS011;11445;53.816;8.902;2023-04-05T11:46:06;6.40;;;2.92;;
22557;SDS011;11445;53.816;8.902;2023-04-05T11:48:33;7.80;;;3.08;;
22557;SDS011;11445;53.816;8.902;2023-04-05T11:51:00;6.03;;;2.80;;
22557;SDS011;11445;53.816;8.902;2023-04-05T11:53:34;6.75;;;3.05;;
22557;SDS011;11445;53.816;8.902;2023-04-05T11:56:05;6.32;;;2.78;;
22557;SDS011;11445;53.816;8.902;2023-04-05T11:58:34;4.68;;;2.97;;
22557;SDS011;11445;53.816;8.902;2023-04-05T12:01:02;5.85;;;3.40;;
22557;SDS011;11445;53.816;8.902;2023-04-05T12:03:31;7.90;;;3.83;;
22557;SDS011;11445;53.816;8.902;2023-04-05T12:05:59;7.43;;;4.53;;
22557;SDS011;11445;53.816;8.902;2023-04-05T12:08:38;8.15;;;3.92;;
22557;SDS011;11445;53.816;8.902;2023-04-05T12:11:06;7.00;;;3.72;;
22557;SDS011;11445;53.816;8.902;2023-04-05T12:13:34;8.50;;;3.78;;
22557;SDS011;11445;53.816;8.902;2023-04-05T12:16:03;14.38;;;3.92;;
22557;SDS011;11445;53.816;8.902;2023-04-05T12:18:32;5.68;;;3.63;;
22557;SDS011;11445;53.816;8.902;2023-04-05T12:21:00;7.68;;;3.72;;
22557;SDS011;11445;53.816;8.902;2023-04-05T12:23:28;7.45;;;3.90;;
22557;SDS011;11445;53.816;8.902;2023-04-05T12:25:58;8.18;;;4.53;;
22557;SDS011;11445;53.816;8.902;2023-04-05T12:34:05;7.05;;;4.13;;
22557;SDS011;11445;53.816;8.902;2023-04-05T12:36:33;8.63;;;4.22;;
22557;SDS011;11445;53.816;8.902;2023-04-05T12:39:04;7.95;;;4.15;;
22557;SDS011;11445;53.816;8.902;2023-04-05T12:41:33;8.60;;;4.43;;
22557;SDS011;11445;53.816;8.902;2023-04-05T12:44:03;9.95;;;4.65;;
22557;SDS011;11445;53.816;8.902;2023-04-05T12:46:37;7.90;;;4.55;;
22557;SDS011;11445;53.816;8.902;2023-04-05T12:49:05;5.82;;;4.25;;
22557;SDS011;11445;53.816;8.902;2023-04-05T12:51:35;9.20;;;4.55;;
22557;SDS011;11445;53.816;8.902;2023-04-05T12:54:03;12.70;;;4.60;;
22557;SDS011;11445;53.816;8.902;2023-04-05T12:56:30;9.55;;;4.55;;
22557;SDS011;11445;53.816;8.902;2023-04-05T12:58:59;7.07;;;3.97;;
22557;SDS011;11445;53.816;8.902;2023-04-05T13:01:26;7.13;;;3.85;;
22557;SDS011;11445;53.816;8.902;2023-04-05T13:03:55;6.30;;;3.90;;
22557;SDS011;11445;53.816;8.902;2023-04-05T13:06:25;7.15;;;4.28;;
22557;SDS011;11445;53.816;8.902;2023-04-05T13:08:52;6.63;;;4.47;;
22557;SDS011;11445;53.816;8.902;2023-04-05T13:11:19;8.18;;;4.53;;
22557;SDS011;11445;53.816;8.902;2023-04-05T13:13:46;10.45;;;4.32;;
22557;SDS011;11445;53.816;8.902;2023-04-05T13:16:15;11.13;;;4.65;;
22557;SDS011;11445;53.816;8.902;2023-04-05T13:18:42;9.10;;;3.78;;
22557;SDS011;11445;53.816;8.902;2023-04-05T13:21:09;7.13;;;4.13;;
22557;SDS011;11445;53.816;8.902;2023-04-05T13:23:36;10.27;;;4.72;;
22557;SDS011;11445;53.816;8.902;2023-04-05T13:26:04;6.57;;;3.88;;
22557;SDS011;11445;53.816;8.902;2023-04-05T13:28:32;5.63;;;3.60;;
22557;SDS011;11445;53.816;8.902;2023-04-05T13:30:59;5.38;;;4.00;;
22557;SDS011;11445;53.816;8.902;2023-04-05T13:33:29;4.65;;;3.80;;
22557;SDS011;11445;53.816;8.902;2023-04-05T13:35:56;9.45;;;3.97;;
22557;SDS011;11445;53.816;8.902;2023-04-05T13:38:23;7.97;;;4.82;;
22557;SDS011;11445;53.816;8.902;2023-04-05T13:40:50;9.18;;;4.53;;
22557;SDS011;11445;53.816;8.902;2023-04-05T13:43:17;11.18;;;4.72;;
22557;SDS011;11445;53.816;8.902;2023-04-05T13:45:44;11.55;;;4.55;;
22557;SDS011;11445;53.816;8.902;2023-04-05T13:48:11;7.88;;;4.13;;
22557;SDS011;11445;53.816;8.902;2023-04-05T13:50:40;6.32;;;4.20;;
22557;SDS011;11445;53.816;8.902;2023-04-05T13:53:07;10.57;;;3.78;;
22557;SDS011;11445;53.816;8.902;2023-04-05T13:55:34;7.30;;;3.60;;
22557;SDS011;11445;53.816;8.902;2023-04-05T13:58:02;9.50;;;3.70;;
22557;SDS011;11445;53.816;8.902;2023-04-05T14:00:29;6.75;;;3.95;;
22557;SDS011;11445;53.816;8.902;2023-04-05T14:02:56;8.00;;;3.95;;
22557;SDS011;11445;53.816;8.902;2023-04-05T14:05:23;6.82;;;4.03;;
22557;SDS011;11445;53.816;8.902;2023-04-05T14:07:51;5.60;;;3.75;;
22557;SDS011;11445;53.816;8.902;2023-04-05T14:10:18;6.60;;;3.38;;
22557;SDS011;11445;53.816;8.902;2023-04-05T14:12:45;6.03;;;3.38;;
22557;SDS011;11445;53.816;8.902;2023-04-05T14:15:12;6.65;;;3.15;;
22557;SDS011;11445;53.816;8.902;2023-04-05T14:17:40;10.02;;;3.65;;
22557;SDS011;11445;53.816;8.902;2023-04-05T14:20:07;6.47;;;3.92;;
22557;SDS011;11445;53.816;8.902;2023-04-05T14:22:35;9.70;;;3.17;;
22557;SDS011;11445;53.816;8.902;2023-04-05T14:25:03;8.48;;;3.17;;
22557;SDS011;11445;53.816;8.902;2023-04-05T14:27:32;9.43;;;3.05;;
22557;SDS011;11445;53.816;8.902;2023-04-05T14:30:01;3.67;;;3.05;;
22557;SDS011;11445;53.816;8.902;2023-04-05T14:32:29;5.43;;;3.00;;
22557;SDS011;11445;53.816;8.902;2023-04-05T14:34:56;7.15;;;3.97;;
22557;SDS011;11445;53.816;8.902;2023-04-05T14:37:23;7.70;;;3.20;;
22557;SDS011;11445;53.816;8.902;2023-04-05T14:39:50;5.70;;;2.83;;
22557;SDS011;11445;53.816;8.902;2023-04-05T14:42:19;5.20;;;3.05;;
22557;SDS011;11445;53.816;8.902;2023-04-05T14:44:46;6.53;;;3.55;;
22557;SDS011;11445;53.816;8.902;2023-04-05T14:47:14;10.60;;;3.20;;
22557;SDS011;11445;53.816;8.902;2023-04-05T14:49:41;3.58;;;2.88;;
22557;SDS011;11445;53.816;8.902;2023-04-05T14:52:08;6.38;;;2.75;;
22557;SDS011;11445;53.816;8.902;2023-04-05T14:54:35;5.50;;;3.00;;
22557;SDS011;11445;53.816;8.902;2023-04-05T14:57:02;5.00;;;2.85;;
22557;SDS011;11445;53.816;8.902;2023-04-05T14:59:31;4.93;;;2.85;;